createdAt,value
2023-03-18T00:01:17.811Z,44.38
2023-03-18T00:03:47.698Z,44.46
2023-03-18T00:06:18.388Z,44.33
2023-03-18T00:08:48.934Z,44.37
2023-03-18T00:11:19.380Z,44.39
2023-03-18T00:13:48.807Z,44.56
2023-03-18T00:16:17.697Z,44.41
2023-03-18T00:18:46.505Z,44.16
2023-03-18T00:21:16.360Z,44.31
2023-03-18T00:23:44.600Z,44.37
2023-03-18T00:26:13.281Z,44.22
2023-03-18T00:28:42.864Z,44.58
2023-03-18T00:31:13.506Z,44.24
2023-03-18T00:33:45.198Z,44.32
2023-03-18T00:36:17.905Z,44.65
2023-03-18T00:38:50.414Z,44.78
2023-03-18T00:41:18.978Z,44.37
2023-03-18T00:43:51.790Z,44.34
2023-03-18T00:46:22.881Z,44.74
2023-03-18T00:48:52.489Z,44.55
2023-03-18T00:51:22.228Z,44.52
2023-03-18T00:53:52.746Z,44.53
2023-03-18T00:56:23.444Z,44.54
2023-03-18T00:58:53.357Z,44.40
2023-03-18T01:01:23.464Z,44.69
2023-03-18T01:03:52.805Z,44.73
2023-03-18T01:06:25.029Z,44.53
2023-03-18T01:08:54.861Z,44.48
2023-03-18T01:11:26.316Z,44.64
2023-03-18T01:13:54.839Z,44.57
2023-03-18T01:16:24.131Z,44.42
2023-03-18T01:18:53.180Z,44.53
2023-03-18T01:21:22.141Z,44.63
2023-03-18T01:23:54.056Z,44.42
2023-03-18T01:26:23.113Z,44.64
2023-03-18T01:28:51.866Z,44.76
2023-03-18T01:31:20.176Z,44.54
2023-03-18T01:33:49.394Z,44.59
2023-03-18T01:36:17.819Z,44.64
2023-03-18T01:38:47.986Z,44.66
2023-03-18T01:41:16.701Z,44.75
2023-03-18T01:43:45.252Z,44.96
2023-03-18T01:46:36.065Z,44.59
2023-03-18T01:49:12.362Z,44.81
2023-03-18T01:51:46.101Z,44.35
2023-03-18T01:54:15.885Z,44.23
2023-03-18T01:56:46.249Z,44.45
2023-03-18T01:59:15.513Z,44.81
2023-03-18T02:01:48.663Z,44.52
2023-03-18T02:04:19.055Z,44.60
2023-03-18T02:06:47.764Z,44.38
2023-03-18T02:09:17.383Z,44.60
2023-03-18T02:11:49.328Z,44.62
2023-03-18T02:14:20.810Z,44.58
2023-03-18T02:16:56.823Z,44.74
2023-03-18T02:19:31.090Z,44.71
2023-03-18T02:22:17.224Z,44.35
2023-03-18T02:24:53.124Z,44.60
2023-03-18T02:27:23.614Z,44.66
2023-03-18T02:29:54.542Z,44.56
2023-03-18T02:32:26.719Z,44.74
2023-03-18T02:34:56.228Z,44.55
2023-03-18T02:37:24.860Z,44.72
2023-03-18T02:39:53.476Z,44.40
2023-03-18T02:42:29.584Z,44.63
2023-03-18T02:44:59.726Z,45.07
2023-03-18T02:47:31.777Z,44.86
2023-03-18T02:50:00.816Z,44.82
2023-03-18T02:52:29.080Z,44.79
2023-03-18T02:54:58.787Z,44.86
2023-03-18T02:57:27.475Z,44.78
2023-03-18T02:59:56.688Z,45.11
2023-03-18T03:02:25.264Z,45.05
2023-03-18T03:04:53.604Z,44.83
2023-03-18T03:07:25.572Z,44.96
2023-03-18T03:09:54.163Z,44.94
2023-03-18T03:12:22.806Z,45.01
2023-03-18T03:14:53.901Z,45.10
2023-03-18T03:17:22.232Z,44.71
2023-03-18T03:19:52.283Z,44.84
2023-03-18T03:22:20.579Z,44.96
2023-03-18T03:24:49.381Z,44.80
2023-03-18T03:27:17.785Z,45.01
2023-03-18T03:29:46.424Z,44.86
2023-03-18T03:32:15.515Z,44.39
2023-03-18T03:34:43.756Z,44.54
2023-03-18T03:37:13.315Z,44.86
2023-03-18T03:39:41.532Z,45.02
2023-03-18T03:42:10.733Z,44.72
2023-03-18T03:44:38.949Z,44.56
2023-03-18T03:47:07.867Z,44.70
2023-03-18T03:49:36.832Z,44.57
2023-03-18T03:52:06.836Z,44.79
2023-03-18T03:54:37.559Z,44.60
2023-03-18T03:57:07.319Z,44.55
2023-03-18T03:59:35.715Z,44.47
2023-03-18T04:02:20.971Z,44.47
2023-03-18T04:04:49.838Z,44.51
2023-03-18T04:07:25.014Z,44.73
2023-03-18T04:09:55.303Z,44.48
2023-03-18T04:12:23.645Z,44.33
2023-03-18T04:14:56.933Z,44.59
2023-03-18T04:17:25.304Z,44.39
2023-03-18T04:19:53.775Z,44.73
2023-03-18T04:22:23.473Z,44.65
2023-03-18T04:24:51.817Z,44.28
2023-03-18T04:27:22.075Z,44.07
2023-03-18T04:29:50.752Z,44.29
2023-03-18T04:32:19.276Z,44.37
2023-03-18T04:34:48.046Z,44.16
2023-03-18T04:37:19.429Z,44.27
2023-03-18T04:39:48.483Z,44.21
2023-03-18T04:42:17.377Z,44.33
2023-03-18T04:44:45.988Z,44.27
2023-03-18T04:47:14.850Z,44.23
2023-03-18T04:49:44.361Z,44.30
2023-03-18T04:52:13.437Z,44.15
2023-03-18T04:54:42.227Z,44.53
2023-03-18T04:57:11.087Z,44.20
2023-03-18T04:59:43.267Z,44.42
2023-03-18T05:02:11.965Z,44.16
2023-03-18T05:04:40.641Z,44.24
2023-03-18T05:07:12.810Z,44.31
2023-03-18T05:09:41.903Z,44.14
2023-03-18T05:12:14.226Z,44.05
2023-03-18T05:14:44.090Z,43.92
2023-03-18T05:17:15.337Z,44.42
2023-03-18T05:19:46.335Z,44.35
2023-03-18T05:22:19.291Z,44.97
2023-03-18T05:24:49.075Z,45.12
2023-03-18T05:27:19.400Z,44.59
2023-03-18T05:29:55.560Z,43.79
2023-03-18T05:32:31.655Z,43.68
2023-03-18T05:35:03.220Z,43.30
2023-03-18T05:37:31.720Z,42.59
2023-03-18T05:40:09.409Z,42.11
2023-03-18T05:42:49.428Z,41.77
2023-03-18T05:45:24.693Z,41.38
2023-03-18T05:47:55.100Z,41.13
2023-03-18T05:50:33.206Z,40.96
2023-03-18T05:53:02.771Z,40.72
2023-03-18T05:55:34.877Z,40.78
2023-03-18T05:58:03.932Z,40.92
2023-03-18T06:00:33.068Z,40.63
2023-03-18T06:03:02.220Z,40.26
2023-03-18T06:05:31.584Z,39.36
2023-03-18T06:08:00.732Z,38.78
2023-03-18T06:10:29.755Z,38.19
2023-03-18T06:12:58.088Z,37.52
2023-03-18T06:15:26.850Z,36.93
2023-03-18T06:17:55.720Z,36.89
2023-03-18T06:20:23.949Z,37.24
2023-03-18T06:22:52.217Z,37.69
2023-03-18T06:25:21.913Z,37.12
2023-03-18T06:27:51.701Z,36.32
2023-03-18T06:30:22.155Z,35.85
2023-03-18T06:32:52.814Z,35.41
2023-03-18T06:35:21.546Z,35.42
2023-03-18T06:37:49.747Z,35.12
2023-03-18T06:40:18.570Z,34.49
2023-03-18T06:42:47.114Z,34.20
2023-03-18T06:45:25.866Z,33.64
2023-03-18T06:48:01.175Z,33.49
2023-03-18T06:50:31.536Z,32.60
2023-03-18T06:52:59.958Z,32.68
2023-03-18T06:55:31.123Z,32.93
2023-03-18T06:57:59.613Z,32.73
2023-03-18T07:00:35.397Z,32.71
2023-03-18T07:03:05.989Z,32.75
2023-03-18T07:05:35.505Z,32.43
2023-03-18T07:08:03.928Z,32.23
2023-03-18T07:10:32.200Z,32.24
2023-03-18T07:13:12.792Z,31.83
2023-03-18T07:15:42.283Z,32.03
2023-03-18T07:18:12.183Z,31.56
2023-03-18T07:20:41.613Z,31.70
2023-03-18T07:23:10.799Z,31.40
2023-03-18T07:25:41.616Z,30.84
2023-03-18T07:28:10.531Z,30.83
2023-03-18T07:30:39.610Z,30.76
2023-03-18T07:33:12.655Z,30.36
2023-03-18T07:35:41.480Z,29.47
2023-03-18T07:38:11.064Z,29.47
2023-03-18T07:40:40.273Z,28.86
2023-03-18T07:43:08.601Z,29.21
2023-03-18T07:45:36.783Z,28.47
2023-03-18T07:48:05.670Z,28.23
2023-03-18T07:50:34.755Z,27.96
2023-03-18T07:53:04.160Z,27.62
2023-03-18T07:55:32.654Z,27.56
2023-03-18T07:58:01.804Z,27.63
2023-03-18T08:00:30.384Z,27.27
2023-03-18T08:02:59.121Z,27.12
2023-03-18T08:05:27.351Z,26.91
2023-03-18T08:07:55.598Z,27.55
2023-03-18T08:10:24.876Z,27.18
2023-03-18T08:12:54.053Z,27.08
2023-03-18T08:15:23.542Z,26.53
2023-03-18T08:17:53.302Z,26.27
2023-03-18T08:20:22.448Z,26.44
2023-03-18T08:22:50.973Z,26.32
2023-03-18T08:25:22.362Z,25.99
2023-03-18T08:27:52.058Z,25.54
2023-03-18T08:30:24.856Z,25.27
2023-03-18T08:32:54.063Z,24.91
2023-03-18T08:35:23.661Z,24.74
2023-03-18T08:37:52.950Z,24.35
2023-03-18T08:40:22.143Z,23.96
2023-03-18T08:42:55.199Z,23.64
2023-03-18T08:45:28.068Z,23.26
2023-03-18T08:47:56.358Z,23.66
2023-03-18T08:50:28.071Z,24.03
2023-03-18T08:52:57.867Z,24.25
2023-03-18T08:55:30.726Z,24.70
2023-03-18T08:57:59.594Z,25.13
2023-03-18T09:00:28.886Z,24.99
2023-03-18T09:02:57.309Z,25.36
2023-03-18T09:05:25.634Z,25.39
2023-03-18T09:07:53.858Z,25.78
2023-03-18T09:10:22.490Z,26.32
2023-03-18T09:12:51.324Z,26.64
2023-03-18T09:15:20.493Z,26.48
2023-03-18T09:18:08.108Z,25.69
2023-03-18T09:20:38.308Z,25.67
2023-03-18T09:23:06.703Z,25.99
2023-03-18T09:25:35.767Z,26.09
2023-03-18T09:28:04.398Z,26.08
2023-03-18T09:30:33.285Z,26.30
2023-03-18T09:33:01.967Z,26.51
2023-03-18T09:35:30.852Z,26.95
2023-03-18T09:37:59.853Z,27.15
2023-03-18T09:40:30.863Z,27.34
2023-03-18T09:43:18.877Z,27.78
2023-03-18T09:45:57.696Z,27.47
2023-03-18T09:48:45.521Z,27.50
2023-03-18T09:51:29.305Z,27.71
2023-03-18T09:54:03.140Z,27.62
2023-03-18T09:56:35.470Z,27.61
2023-03-18T09:59:15.832Z,27.78
2023-03-18T10:01:47.208Z,28.01
2023-03-18T10:04:20.841Z,28.29
2023-03-18T10:06:50.772Z,28.39
2023-03-18T10:09:24.889Z,28.50
2023-03-18T10:11:59.460Z,28.53
2023-03-18T10:14:38.519Z,28.62
2023-03-18T10:17:20.058Z,28.49
2023-03-18T10:19:53.207Z,28.22
2023-03-18T10:22:37.953Z,28.36
2023-03-18T10:25:18.856Z,28.77
2023-03-18T10:28:03.501Z,28.79
2023-03-18T10:30:43.063Z,28.91
2023-03-18T10:33:18.451Z,29.16
2023-03-18T10:35:53.366Z,29.19
2023-03-18T10:38:25.932Z,29.09
2023-03-18T10:40:55.708Z,29.11
2023-03-18T10:43:27.588Z,29.19
2023-03-18T10:46:02.045Z,28.71
2023-03-18T10:48:33.228Z,28.60
2023-03-18T10:51:12.587Z,28.71
2023-03-18T10:53:46.320Z,28.52
2023-03-18T10:56:15.362Z,28.71
2023-03-18T10:58:43.844Z,28.80
2023-03-18T11:01:17.153Z,28.90
2023-03-18T11:03:52.214Z,28.84
2023-03-18T11:06:25.157Z,28.69
2023-03-18T11:09:05.800Z,28.86
2023-03-18T11:11:34.866Z,28.92
2023-03-18T11:14:04.603Z,28.85
2023-03-18T11:16:39.694Z,28.91
2023-03-18T11:19:16.381Z,29.00
2023-03-18T11:21:44.803Z,29.00
2023-03-18T11:24:35.696Z,29.13
2023-03-18T11:27:06.996Z,29.36
2023-03-18T11:29:40.397Z,29.47
2023-03-18T11:32:25.550Z,29.63
2023-03-18T11:35:00.089Z,29.62
2023-03-18T11:37:32.209Z,29.25
2023-03-18T11:40:27.514Z,29.30
2023-03-18T11:42:58.816Z,29.41
2023-03-18T11:45:44.026Z,29.33
2023-03-18T11:48:18.331Z,29.28
2023-03-18T11:51:00.592Z,29.08
2023-03-18T11:53:39.869Z,29.19
2023-03-18T11:56:16.739Z,29.15
2023-03-18T11:59:13.810Z,29.28
2023-03-18T12:01:52.514Z,29.10
2023-03-18T12:04:48.958Z,29.14
2023-03-18T12:07:30.201Z,29.24
2023-03-18T12:10:12.322Z,29.36
2023-03-18T12:12:54.705Z,29.48
2023-03-18T12:15:35.855Z,29.38
2023-03-18T12:18:18.084Z,29.25
2023-03-18T12:20:51.592Z,29.23
2023-03-18T12:23:36.941Z,29.18
2023-03-18T12:26:09.009Z,29.28
2023-03-18T12:28:52.476Z,29.39
2023-03-18T12:31:34.689Z,29.54
2023-03-18T12:34:04.238Z,29.74
2023-03-18T12:36:49.999Z,29.75
2023-03-18T12:39:48.918Z,29.57
2023-03-18T12:42:27.691Z,29.38
2023-03-18T12:45:02.961Z,29.52
2023-03-18T12:47:37.372Z,29.52
2023-03-18T12:50:15.695Z,29.69
2023-03-18T12:52:48.644Z,29.59
2023-03-18T12:55:21.843Z,29.58
2023-03-18T12:57:56.466Z,29.59
2023-03-18T13:00:30.623Z,29.50
2023-03-18T13:03:07.381Z,29.51
2023-03-18T13:05:44.896Z,29.63
2023-03-18T13:08:44.579Z,29.81
2023-03-18T13:11:23.669Z,29.75
2023-03-18T13:13:55.792Z,29.87
2023-03-18T13:16:25.272Z,30.08
2023-03-18T13:18:57.640Z,30.03
2023-03-18T13:21:40.806Z,29.94
2023-03-18T13:24:27.333Z,30.00
2023-03-18T13:27:14.781Z,29.87
2023-03-18T13:29:51.064Z,29.91
2023-03-18T13:32:37.366Z,29.77
2023-03-18T13:35:26.667Z,29.73
2023-03-18T13:38:25.450Z,29.94
2023-03-18T13:41:09.816Z,29.97
2023-03-18T13:43:41.901Z,29.94
2023-03-18T13:46:19.782Z,30.01
2023-03-18T13:48:49.567Z,30.00
2023-03-18T13:51:44.754Z,29.95
2023-03-18T13:54:18.056Z,29.84
2023-03-18T13:56:55.336Z,29.82
2023-03-18T13:59:46.370Z,29.85
2023-03-18T14:02:34.853Z,29.77
2023-03-18T14:05:23.389Z,30.07
2023-03-18T14:07:55.233Z,30.15
2023-03-18T14:10:24.446Z,30.16
2023-03-18T14:12:53.080Z,30.12
2023-03-18T14:15:38.695Z,29.99
2023-03-18T14:18:25.343Z,30.28
2023-03-18T14:20:59.003Z,30.33
2023-03-18T14:23:38.040Z,30.41
2023-03-18T14:26:17.510Z,30.38
2023-03-18T14:28:48.437Z,30.23
2023-03-18T14:31:26.283Z,30.18
2023-03-18T14:34:02.212Z,30.22
2023-03-18T14:37:03.897Z,30.42
2023-03-18T14:39:37.698Z,30.43
2023-03-18T14:42:13.196Z,30.46
2023-03-18T14:44:49.232Z,30.68
2023-03-18T14:47:37.447Z,30.71
2023-03-18T14:50:17.596Z,30.74
2023-03-18T14:52:55.307Z,30.71
2023-03-18T14:55:28.972Z,30.89
2023-03-18T14:57:57.509Z,30.70
2023-03-18T15:00:28.554Z,30.64
2023-03-18T15:03:03.819Z,30.65
2023-03-18T15:05:34.434Z,30.35
2023-03-18T15:08:07.411Z,30.25
2023-03-18T15:10:38.550Z,30.32
2023-03-18T15:13:12.352Z,30.48
2023-03-18T15:15:42.143Z,30.43
2023-03-18T15:18:21.712Z,30.50
2023-03-18T15:20:52.907Z,30.59
2023-03-18T15:23:28.806Z,30.56
2023-03-18T15:25:57.523Z,30.54
2023-03-18T15:28:28.532Z,30.61
2023-03-18T15:30:58.918Z,30.51
2023-03-18T15:33:31.056Z,30.46
2023-03-18T15:36:06.446Z,30.58
2023-03-18T15:38:35.385Z,30.75
2023-03-18T15:41:06.725Z,30.82
2023-03-18T15:43:40.937Z,30.92
2023-03-18T15:46:18.033Z,30.90
2023-03-18T15:48:53.967Z,30.88
2023-03-18T15:51:29.456Z,30.87
2023-03-18T15:54:03.012Z,31.08
2023-03-18T15:56:32.949Z,31.11
2023-03-18T15:59:08.412Z,31.23
2023-03-18T16:01:37.296Z,31.34
2023-03-18T16:04:12.067Z,31.40
2023-03-18T16:06:40.640Z,31.64
2023-03-18T16:09:17.360Z,31.79
2023-03-18T16:11:49.981Z,31.83
2023-03-18T16:14:20.976Z,31.91
2023-03-18T16:16:49.399Z,31.98
2023-03-18T16:19:24.712Z,31.99
2023-03-18T16:21:52.356Z,32.10
2023-03-18T16:24:20.851Z,32.11
2023-03-18T16:26:49.753Z,32.31
2023-03-18T16:29:22.768Z,32.28
2023-03-18T16:31:51.105Z,32.42
2023-03-18T16:34:21.734Z,32.52
2023-03-18T16:36:51.466Z,32.49
2023-03-18T16:39:23.731Z,32.48
2023-03-18T16:41:52.138Z,32.47
2023-03-18T16:44:22.943Z,32.62
2023-03-18T16:46:54.243Z,32.59
2023-03-18T16:49:25.079Z,32.65
2023-03-18T16:51:54.142Z,32.75
2023-03-18T16:54:25.133Z,32.78
2023-03-18T16:56:57.258Z,32.85
2023-03-18T16:59:31.376Z,32.87
2023-03-18T17:01:59.813Z,32.87
2023-03-18T17:04:31.167Z,32.80
2023-03-18T17:07:03.650Z,32.94
2023-03-18T17:09:32.541Z,33.05
2023-03-18T17:12:05.012Z,33.03
2023-03-18T17:14:38.013Z,32.95
2023-03-18T17:17:11.925Z,32.97
2023-03-18T17:19:40.700Z,32.95
2023-03-18T17:22:20.880Z,33.16
2023-03-18T17:24:50.438Z,33.02
2023-03-18T17:27:23.171Z,33.17
2023-03-18T17:29:52.342Z,33.03
2023-03-18T17:32:21.789Z,33.05
2023-03-18T17:34:51.409Z,33.18
2023-03-18T17:37:20.570Z,33.29
2023-03-18T17:39:49.186Z,33.19
2023-03-18T17:42:28.397Z,33.13
2023-03-18T17:44:57.958Z,33.34
2023-03-18T17:47:26.606Z,33.21
2023-03-18T17:49:55.192Z,33.37
2023-03-18T17:52:24.642Z,33.27
2023-03-18T17:54:53.839Z,33.33
2023-03-18T17:57:22.413Z,33.40
2023-03-18T17:59:51.012Z,33.32
2023-03-18T18:02:20.662Z,33.46
2023-03-18T18:04:49.205Z,33.59
2023-03-18T18:07:21.135Z,33.41
2023-03-18T18:09:52.829Z,33.41
2023-03-18T18:12:24.955Z,33.47
2023-03-18T18:14:53.238Z,33.38
2023-03-18T18:17:22.452Z,33.46
2023-03-18T18:19:51.287Z,33.61
2023-03-18T18:22:24.368Z,33.64
2023-03-18T18:24:53.248Z,33.74
2023-03-18T18:27:23.732Z,33.74
2023-03-18T18:29:52.888Z,33.87
2023-03-18T18:32:24.287Z,33.87
2023-03-18T18:34:53.461Z,33.96
2023-03-18T18:37:21.760Z,33.97
2023-03-18T18:39:52.291Z,34.11
2023-03-18T18:42:21.189Z,34.11
2023-03-18T18:44:52.117Z,34.23
2023-03-18T18:47:20.509Z,34.38
2023-03-18T18:49:48.854Z,34.26
2023-03-18T18:52:17.178Z,34.45
2023-03-18T18:54:45.741Z,34.67
2023-03-18T18:57:26.068Z,34.47
2023-03-18T18:59:56.387Z,34.60
2023-03-18T19:02:33.170Z,34.63
2023-03-18T19:05:04.127Z,34.71
2023-03-18T19:07:33.940Z,34.75
2023-03-18T19:10:03.438Z,34.85
2023-03-18T19:12:32.037Z,34.77
2023-03-18T19:15:00.493Z,34.79
2023-03-18T19:17:28.804Z,34.78
2023-03-18T19:19:59.721Z,34.88
2023-03-18T19:22:28.019Z,34.97
2023-03-18T19:24:56.795Z,34.92
2023-03-18T19:27:28.478Z,34.96
2023-03-18T19:30:00.846Z,35.09
2023-03-18T19:32:29.560Z,35.18
2023-03-18T19:34:58.013Z,35.16
2023-03-18T19:37:28.615Z,35.38
2023-03-18T19:39:59.300Z,35.22
2023-03-18T19:42:27.511Z,35.50
2023-03-18T19:44:55.916Z,35.38
2023-03-18T19:47:26.570Z,35.63
2023-03-18T19:49:55.239Z,35.64
2023-03-18T19:52:25.757Z,35.78
2023-03-18T19:54:55.091Z,35.71
2023-03-18T19:57:26.980Z,35.92
2023-03-18T19:59:58.280Z,35.77
2023-03-18T20:02:28.085Z,35.78
2023-03-18T20:04:58.670Z,36.10
2023-03-18T20:07:29.633Z,36.01
2023-03-18T20:09:57.960Z,36.00
2023-03-18T20:12:29.766Z,36.22
2023-03-18T20:14:58.061Z,36.23
2023-03-18T20:17:34.259Z,36.35
2023-03-18T20:20:02.648Z,36.30
2023-03-18T20:22:34.203Z,36.42
2023-03-18T20:25:04.401Z,36.46
2023-03-18T20:27:32.660Z,36.59
2023-03-18T20:30:01.056Z,36.65
2023-03-18T20:32:31.895Z,36.39
2023-03-18T20:35:02.881Z,36.45
2023-03-18T20:37:36.232Z,36.55
2023-03-18T20:40:14.282Z,36.55
2023-03-18T20:42:42.477Z,36.88
2023-03-18T20:45:15.673Z,36.91
2023-03-18T20:47:44.256Z,36.83
2023-03-18T20:50:15.485Z,37.04
2023-03-18T20:52:46.566Z,37.10
2023-03-18T20:55:24.968Z,37.09
2023-03-18T20:57:54.101Z,37.09
2023-03-18T21:00:24.999Z,37.38
2023-03-18T21:02:55.963Z,37.20
2023-03-18T21:05:25.596Z,37.07
2023-03-18T21:07:54.357Z,37.35
2023-03-18T21:10:24.439Z,37.45
2023-03-18T21:12:54.954Z,37.45
2023-03-18T21:15:25.826Z,37.24
2023-03-18T21:17:55.086Z,37.45
2023-03-18T21:20:27.217Z,37.45
2023-03-18T21:22:56.462Z,37.55
2023-03-18T21:25:26.946Z,37.63
2023-03-18T21:27:55.766Z,37.58
2023-03-18T21:30:24.335Z,37.73
2023-03-18T21:32:52.841Z,37.81
2023-03-18T21:35:23.079Z,37.62
2023-03-18T21:37:51.908Z,37.80
2023-03-18T21:40:22.663Z,37.73
2023-03-18T21:42:51.628Z,37.74
2023-03-18T21:45:23.134Z,37.54
2023-03-18T21:47:52.287Z,37.61
2023-03-18T21:50:23.810Z,37.61
2023-03-18T21:52:53.548Z,37.85
2023-03-18T21:55:22.280Z,37.79
2023-03-18T21:57:51.502Z,37.81
2023-03-18T22:00:21.227Z,37.99
2023-03-18T22:02:49.846Z,37.95
2023-03-18T22:05:20.040Z,38.02
2023-03-18T22:07:49.818Z,37.92
2023-03-18T22:10:20.629Z,38.02
2023-03-18T22:12:49.448Z,37.98
2023-03-18T22:15:35.962Z,38.00
2023-03-18T22:18:05.521Z,37.99
2023-03-18T22:20:35.273Z,37.90
2023-03-18T22:23:16.031Z,38.13
2023-03-18T22:25:45.878Z,37.92
2023-03-18T22:28:14.062Z,38.18
2023-03-18T22:30:44.173Z,38.04
2023-03-18T22:33:21.116Z,38.08
2023-03-18T22:35:49.438Z,38.27
2023-03-18T22:38:19.372Z,38.24
2023-03-18T22:40:49.243Z,38.14
2023-03-18T22:43:27.217Z,38.26
2023-03-18T22:45:56.022Z,38.28
2023-03-18T22:48:25.136Z,38.25
2023-03-18T22:50:54.455Z,38.35
2023-03-18T22:53:25.329Z,38.35
2023-03-18T22:55:55.906Z,38.26
2023-03-18T22:58:26.783Z,38.32
2023-03-18T23:00:56.573Z,38.44
2023-03-18T23:03:28.470Z,38.31
2023-03-18T23:05:58.363Z,38.37
2023-03-18T23:08:27.587Z,38.40
2023-03-18T23:10:58.800Z,38.39
2023-03-18T23:13:30.148Z,38.40
2023-03-18T23:15:58.495Z,38.41
2023-03-18T23:18:26.722Z,38.61
2023-03-18T23:20:55.364Z,38.61
2023-03-18T23:23:23.720Z,38.78
2023-03-18T23:25:52.295Z,38.78
2023-03-18T23:28:20.497Z,38.75
2023-03-18T23:30:51.396Z,38.75
2023-03-18T23:33:20.163Z,38.75
2023-03-18T23:35:48.542Z,38.77
2023-03-18T23:38:17.133Z,38.78
2023-03-18T23:40:45.402Z,38.80
2023-03-18T23:43:13.965Z,38.96
2023-03-18T23:45:42.295Z,38.97
2023-03-18T23:48:10.619Z,38.97
2023-03-18T23:50:38.943Z,39.00
2023-03-18T23:53:07.100Z,39.18
2023-03-18T23:55:35.781Z,39.21
2023-03-18T23:58:04.368Z,39.15
